sensor_id;sensor_type;location;lat;lon;timestamp;P1;durP1;ratioP1;P2;durP2;ratioP2
12976;SDS011;6553;48.412;9.514;2022-07-23T00:01:34;5.20;;;4.80;;
12976;SDS011;6553;48.412;9.514;2022-07-23T00:04:00;5.35;;;4.95;;
12976;SDS011;6553;48.412;9.514;2022-07-23T00:06:26;5.03;;;4.65;;
12976;SDS011;6553;48.412;9.514;2022-07-23T00:08:52;5.05;;;4.68;;
12976;SDS011;6553;48.412;9.514;2022-07-23T00:11:17;5.30;;;4.90;;
12976;SDS011;6553;48.412;9.514;2022-07-23T00:13:44;5.70;;;5.20;;
12976;SDS011;6553;48.412;9.514;2022-07-23T00:16:10;4.78;;;4.38;;
12976;SDS011;6553;48.412;9.514;2022-07-23T00:18:36;4.78;;;4.38;;
12976;SDS011;6553;48.412;9.514;2022-07-23T00:21:02;5.18;;;4.78;;
12976;SDS011;6553;48.412;9.514;2022-07-23T00:23:28;5.30;;;4.80;;
12976;SDS011;6553;48.412;9.514;2022-07-23T00:25:54;4.60;;;4.30;;
12976;SDS011;6553;48.412;9.514;2022-07-23T00:28:20;4.80;;;4.40;;
12976;SDS011;6553;48.412;9.514;2022-07-23T00:30:46;4.93;;;4.53;;
12976;SDS011;6553;48.412;9.514;2022-07-23T00:33:12;5.10;;;4.70;;
12976;SDS011;6553;48.412;9.514;2022-07-23T00:35:39;5.32;;;4.93;;
12976;SDS011;6553;48.412;9.514;2022-07-23T00:38:07;4.70;;;4.30;;
12976;SDS011;6553;48.412;9.514;2022-07-23T00:40:35;4.90;;;4.50;;
12976;SDS011;6553;48.412;9.514;2022-07-23T00:43:02;4.72;;;4.32;;
12976;SDS011;6553;48.412;9.514;2022-07-23T00:45:28;4.90;;;4.60;;
12976;SDS011;6553;48.412;9.514;2022-07-23T00:47:54;4.97;;;4.57;;
12976;SDS011;6553;48.412;9.514;2022-07-23T00:50:20;5.50;;;5.10;;
12976;SDS011;6553;48.412;9.514;2022-07-23T00:52:46;4.65;;;4.32;;
12976;SDS011;6553;48.412;9.514;2022-07-23T00:55:12;5.10;;;4.72;;
12976;SDS011;6553;48.412;9.514;2022-07-23T00:57:39;5.10;;;4.70;;
12976;SDS011;6553;48.412;9.514;2022-07-23T01:00:07;5.35;;;4.68;;
12976;SDS011;6553;48.412;9.514;2022-07-23T01:02:36;4.82;;;4.40;;
12976;SDS011;6553;48.412;9.514;2022-07-23T01:05:03;4.70;;;4.40;;
12976;SDS011;6553;48.412;9.514;2022-07-23T01:07:30;4.97;;;4.60;;
12976;SDS011;6553;48.412;9.514;2022-07-23T01:09:56;4.55;;;4.25;;
12976;SDS011;6553;48.412;9.514;2022-07-23T01:12:24;5.03;;;4.63;;
12976;SDS011;6553;48.412;9.514;2022-07-23T01:14:54;4.57;;;4.28;;
12976;SDS011;6553;48.412;9.514;2022-07-23T01:17:20;4.85;;;4.45;;
12976;SDS011;6553;48.412;9.514;2022-07-23T01:19:46;4.50;;;4.20;;
12976;SDS011;6553;48.412;9.514;2022-07-23T01:22:12;5.10;;;4.70;;
12976;SDS011;6553;48.412;9.514;2022-07-23T01:24:43;4.53;;;4.22;;
12976;SDS011;6553;48.412;9.514;2022-07-23T01:27:10;4.72;;;4.38;;
12976;SDS011;6553;48.412;9.514;2022-07-23T01:29:38;4.55;;;4.25;;
12976;SDS011;6553;48.412;9.514;2022-07-23T01:32:13;4.68;;;4.28;;
12976;SDS011;6553;48.412;9.514;2022-07-23T01:34:39;5.00;;;4.70;;
12976;SDS011;6553;48.412;9.514;2022-07-23T01:37:06;4.63;;;4.22;;
12976;SDS011;6553;48.412;9.514;2022-07-23T01:39:32;4.32;;;3.92;;
12976;SDS011;6553;48.412;9.514;2022-07-23T01:41:57;4.72;;;4.32;;
12976;SDS011;6553;48.412;9.514;2022-07-23T01:44:24;4.82;;;4.43;;
12976;SDS011;6553;48.412;9.514;2022-07-23T01:46:50;4.75;;;4.20;;
12976;SDS011;6553;48.412;9.514;2022-07-23T01:49:18;4.22;;;3.92;;
12976;SDS011;6553;48.412;9.514;2022-07-23T01:51:46;4.97;;;4.57;;
12976;SDS011;6553;48.412;9.514;2022-07-23T01:54:39;4.70;;;4.30;;
12976;SDS011;6553;48.412;9.514;2022-07-23T01:57:06;4.75;;;4.43;;
12976;SDS011;6553;48.412;9.514;2022-07-23T01:59:33;4.53;;;4.13;;
12976;SDS011;6553;48.412;9.514;2022-07-23T02:02:01;5.30;;;4.90;;
12976;SDS011;6553;48.412;9.514;2022-07-23T02:04:30;4.70;;;4.32;;
12976;SDS011;6553;48.412;9.514;2022-07-23T02:06:57;4.45;;;4.15;;
12976;SDS011;6553;48.412;9.514;2022-07-23T02:09:25;4.53;;;4.15;;
12976;SDS011;6553;48.412;9.514;2022-07-23T02:11:51;4.45;;;4.15;;
12976;SDS011;6553;48.412;9.514;2022-07-23T02:14:17;4.75;;;4.35;;
12976;SDS011;6553;48.412;9.514;2022-07-23T02:16:45;4.55;;;4.25;;
12976;SDS011;6553;48.412;9.514;2022-07-23T02:19:10;4.85;;;4.55;;
12976;SDS011;6553;48.412;9.514;2022-07-23T02:21:36;4.55;;;4.25;;
12976;SDS011;6553;48.412;9.514;2022-07-23T02:24:03;4.57;;;4.28;;
12976;SDS011;6553;48.412;9.514;2022-07-23T02:26:30;4.45;;;4.07;;
12976;SDS011;6553;48.412;9.514;2022-07-23T02:29:01;4.78;;;4.40;;
12976;SDS011;6553;48.412;9.514;2022-07-23T02:31:28;5.00;;;4.70;;
12976;SDS011;6553;48.412;9.514;2022-07-23T02:33:56;4.80;;;4.35;;
12976;SDS011;6553;48.412;9.514;2022-07-23T02:36:22;4.38;;;4.07;;
12976;SDS011;6553;48.412;9.514;2022-07-23T02:38:48;4.47;;;4.18;;
12976;SDS011;6553;48.412;9.514;2022-07-23T02:41:14;5.05;;;4.65;;
12976;SDS011;6553;48.412;9.514;2022-07-23T02:43:41;4.32;;;4.03;;
12976;SDS011;6553;48.412;9.514;2022-07-23T02:46:07;4.82;;;4.53;;
12976;SDS011;6553;48.412;9.514;2022-07-23T02:48:33;4.43;;;4.13;;
12976;SDS011;6553;48.412;9.514;2022-07-23T02:50:59;4.60;;;4.20;;
12976;SDS011;6553;48.412;9.514;2022-07-23T02:53:32;5.03;;;4.63;;
12976;SDS011;6553;48.412;9.514;2022-07-23T02:55:57;4.65;;;4.35;;
12976;SDS011;6553;48.412;9.514;2022-07-23T02:58:23;4.85;;;4.43;;
12976;SDS011;6553;48.412;9.514;2022-07-23T03:00:52;4.53;;;4.15;;
12976;SDS011;6553;48.412;9.514;2022-07-23T03:03:18;4.68;;;4.38;;
12976;SDS011;6553;48.412;9.514;2022-07-23T03:05:44;5.07;;;4.68;;
12976;SDS011;6553;48.412;9.514;2022-07-23T03:08:10;4.82;;;4.47;;
12976;SDS011;6553;48.412;9.514;2022-07-23T03:10:39;5.03;;;4.60;;
12976;SDS011;6553;48.412;9.514;2022-07-23T03:13:05;4.90;;;4.60;;
12976;SDS011;6553;48.412;9.514;2022-07-23T03:15:31;5.45;;;5.05;;
12976;SDS011;6553;48.412;9.514;2022-07-23T03:17:57;4.80;;;4.43;;
12976;SDS011;6553;48.412;9.514;2022-07-23T03:20:23;5.10;;;4.63;;
12976;SDS011;6553;48.412;9.514;2022-07-23T03:22:49;4.85;;;4.45;;
12976;SDS011;6553;48.412;9.514;2022-07-23T03:25:17;4.40;;;4.07;;
12976;SDS011;6553;48.412;9.514;2022-07-23T03:27:43;5.47;;;5.07;;
12976;SDS011;6553;48.412;9.514;2022-07-23T03:30:10;4.55;;;4.25;;
12976;SDS011;6553;48.412;9.514;2022-07-23T03:32:37;5.00;;;4.60;;
12976;SDS011;6553;48.412;9.514;2022-07-23T03:35:03;5.10;;;4.60;;
12976;SDS011;6553;48.412;9.514;2022-07-23T03:37:31;4.70;;;4.30;;
12976;SDS011;6553;48.412;9.514;2022-07-23T03:39:58;5.03;;;4.57;;
12976;SDS011;6553;48.412;9.514;2022-07-23T03:42:24;4.60;;;4.25;;
12976;SDS011;6553;48.412;9.514;2022-07-23T03:44:49;4.93;;;4.55;;
12976;SDS011;6553;48.412;9.514;2022-07-23T03:47:15;4.47;;;4.07;;
12976;SDS011;6553;48.412;9.514;2022-07-23T03:49:43;4.82;;;4.43;;
12976;SDS011;6553;48.412;9.514;2022-07-23T03:52:09;4.93;;;4.53;;
12976;SDS011;6553;48.412;9.514;2022-07-23T03:54:34;4.85;;;4.45;;
12976;SDS011;6553;48.412;9.514;2022-07-23T03:57:00;4.50;;;4.10;;
12976;SDS011;6553;48.412;9.514;2022-07-23T03:59:27;4.80;;;4.45;;
12976;SDS011;6553;48.412;9.514;2022-07-23T04:01:53;5.07;;;4.78;;
12976;SDS011;6553;48.412;9.514;2022-07-23T04:04:19;5.45;;;5.05;;
12976;SDS011;6553;48.412;9.514;2022-07-23T04:06:45;5.18;;;4.78;;
12976;SDS011;6553;48.412;9.514;2022-07-23T04:09:11;5.10;;;4.70;;
12976;SDS011;6553;48.412;9.514;2022-07-23T04:11:37;4.80;;;4.40;;
12976;SDS011;6553;48.412;9.514;2022-07-23T04:14:03;5.28;;;4.88;;
12976;SDS011;6553;48.412;9.514;2022-07-23T04:16:29;5.00;;;4.68;;
12976;SDS011;6553;48.412;9.514;2022-07-23T04:18:58;5.22;;;4.72;;
12976;SDS011;6553;48.412;9.514;2022-07-23T04:21:27;5.35;;;4.95;;
12976;SDS011;6553;48.412;9.514;2022-07-23T04:23:54;4.93;;;4.63;;
12976;SDS011;6553;48.412;9.514;2022-07-23T04:26:20;5.03;;;4.63;;
12976;SDS011;6553;48.412;9.514;2022-07-23T04:28:46;5.03;;;4.65;;
12976;SDS011;6553;48.412;9.514;2022-07-23T04:31:12;5.47;;;4.97;;
12976;SDS011;6553;48.412;9.514;2022-07-23T04:33:38;5.07;;;4.68;;
12976;SDS011;6553;48.412;9.514;2022-07-23T04:36:06;5.15;;;4.75;;
12976;SDS011;6553;48.412;9.514;2022-07-23T04:38:32;4.72;;;4.43;;
12976;SDS011;6553;48.412;9.514;2022-07-23T04:41:01;4.85;;;4.45;;
12976;SDS011;6553;48.412;9.514;2022-07-23T04:43:27;5.00;;;4.65;;
12976;SDS011;6553;48.412;9.514;2022-07-23T04:45:53;5.20;;;4.80;;
12976;SDS011;6553;48.412;9.514;2022-07-23T04:48:19;4.97;;;4.60;;
12976;SDS011;6553;48.412;9.514;2022-07-23T04:50:48;4.95;;;4.55;;
12976;SDS011;6553;48.412;9.514;2022-07-23T04:53:17;4.93;;;4.47;;
12976;SDS011;6553;48.412;9.514;2022-07-23T04:55:45;5.72;;;5.22;;
12976;SDS011;6553;48.412;9.514;2022-07-23T04:58:11;5.60;;;5.10;;
12976;SDS011;6553;48.412;9.514;2022-07-23T05:00:37;5.57;;;5.15;;
12976;SDS011;6553;48.412;9.514;2022-07-23T05:03:03;5.10;;;4.68;;
12976;SDS011;6553;48.412;9.514;2022-07-23T05:05:29;5.63;;;5.18;;
12976;SDS011;6553;48.412;9.514;2022-07-23T05:08:04;5.47;;;4.97;;
12976;SDS011;6553;48.412;9.514;2022-07-23T05:10:30;5.28;;;4.78;;
12976;SDS011;6553;48.412;9.514;2022-07-23T05:12:56;5.38;;;4.88;;
12976;SDS011;6553;48.412;9.514;2022-07-23T05:15:22;5.68;;;5.22;;
12976;SDS011;6553;48.412;9.514;2022-07-23T05:17:49;5.40;;;5.00;;
12976;SDS011;6553;48.412;9.514;2022-07-23T05:20:16;5.05;;;4.65;;
12976;SDS011;6553;48.412;9.514;2022-07-23T05:22:42;5.60;;;5.20;;
12976;SDS011;6553;48.412;9.514;2022-07-23T05:25:08;5.35;;;4.85;;
12976;SDS011;6553;48.412;9.514;2022-07-23T05:27:34;5.55;;;4.90;;
12976;SDS011;6553;48.412;9.514;2022-07-23T05:30:00;5.57;;;5.07;;
12976;SDS011;6553;48.412;9.514;2022-07-23T05:32:28;5.80;;;5.30;;
12976;SDS011;6553;48.412;9.514;2022-07-23T05:35:05;5.82;;;5.43;;
12976;SDS011;6553;48.412;9.514;2022-07-23T05:37:35;5.32;;;4.93;;
12976;SDS011;6553;48.412;9.514;2022-07-23T05:40:05;5.40;;;5.00;;
12976;SDS011;6553;48.412;9.514;2022-07-23T05:42:34;5.43;;;5.03;;
12976;SDS011;6553;48.412;9.514;2022-07-23T05:45:02;5.68;;;5.18;;
12976;SDS011;6553;48.412;9.514;2022-07-23T05:50:07;5.45;;;5.05;;
12976;SDS011;6553;48.412;9.514;2022-07-23T05:52:41;5.63;;;5.22;;
12976;SDS011;6553;48.412;9.514;2022-07-23T05:55:27;5.68;;;5.28;;
12976;SDS011;6553;48.412;9.514;2022-07-23T05:57:56;5.28;;;4.88;;
12976;SDS011;6553;48.412;9.514;2022-07-23T06:00:24;5.50;;;5.00;;
12976;SDS011;6553;48.412;9.514;2022-07-23T06:02:51;5.40;;;4.90;;
12976;SDS011;6553;48.412;9.514;2022-07-23T06:05:17;5.30;;;4.88;;
12976;SDS011;6553;48.412;9.514;2022-07-23T06:07:44;5.95;;;5.22;;
12976;SDS011;6553;48.412;9.514;2022-07-23T06:10:12;5.70;;;5.20;;
12976;SDS011;6553;48.412;9.514;2022-07-23T06:12:38;5.75;;;5.25;;
12976;SDS011;6553;48.412;9.514;2022-07-23T06:15:04;5.35;;;4.95;;
12976;SDS011;6553;48.412;9.514;2022-07-23T06:17:32;5.38;;;4.97;;
12976;SDS011;6553;48.412;9.514;2022-07-23T06:19:58;5.75;;;5.30;;
12976;SDS011;6553;48.412;9.514;2022-07-23T06:22:24;5.50;;;5.10;;
12976;SDS011;6553;48.412;9.514;2022-07-23T06:24:50;5.95;;;5.45;;
12976;SDS011;6553;48.412;9.514;2022-07-23T06:27:20;6.05;;;5.47;;
12976;SDS011;6553;48.412;9.514;2022-07-23T06:29:46;5.63;;;5.22;;
12976;SDS011;6553;48.412;9.514;2022-07-23T06:32:12;6.05;;;5.55;;
12976;SDS011;6553;48.412;9.514;2022-07-23T06:34:38;5.57;;;5.18;;
12976;SDS011;6553;48.412;9.514;2022-07-23T06:37:03;5.35;;;4.95;;
12976;SDS011;6553;48.412;9.514;2022-07-23T06:39:30;5.85;;;5.35;;
12976;SDS011;6553;48.412;9.514;2022-07-23T06:41:58;5.45;;;5.05;;
12976;SDS011;6553;48.412;9.514;2022-07-23T06:44:35;5.68;;;5.28;;
12976;SDS011;6553;48.412;9.514;2022-07-23T06:47:01;5.97;;;5.47;;
12976;SDS011;6553;48.412;9.514;2022-07-23T06:49:27;5.55;;;5.05;;
12976;SDS011;6553;48.412;9.514;2022-07-23T06:51:56;5.72;;;5.25;;
12976;SDS011;6553;48.412;9.514;2022-07-23T06:54:22;5.63;;;5.18;;
12976;SDS011;6553;48.412;9.514;2022-07-23T06:56:48;5.40;;;5.00;;
12976;SDS011;6553;48.412;9.514;2022-07-23T06:59:14;5.97;;;5.47;;
12976;SDS011;6553;48.412;9.514;2022-07-23T07:01:41;5.97;;;5.47;;
12976;SDS011;6553;48.412;9.514;2022-07-23T07:04:07;6.30;;;5.80;;
12976;SDS011;6553;48.412;9.514;2022-07-23T07:06:33;5.72;;;5.28;;
12976;SDS011;6553;48.412;9.514;2022-07-23T07:08:59;6.20;;;5.70;;
12976;SDS011;6553;48.412;9.514;2022-07-23T07:11:25;6.63;;;6.03;;
12976;SDS011;6553;48.412;9.514;2022-07-23T07:13:51;5.93;;;5.53;;
12976;SDS011;6553;48.412;9.514;2022-07-23T07:16:17;6.05;;;5.60;;
12976;SDS011;6553;48.412;9.514;2022-07-23T07:18:43;5.95;;;5.45;;
12976;SDS011;6553;48.412;9.514;2022-07-23T07:21:09;5.97;;;5.47;;
12976;SDS011;6553;48.412;9.514;2022-07-23T07:23:35;6.53;;;5.93;;
12976;SDS011;6553;48.412;9.514;2022-07-23T07:26:00;6.25;;;5.75;;
12976;SDS011;6553;48.412;9.514;2022-07-23T07:28:26;5.57;;;5.18;;
12976;SDS011;6553;48.412;9.514;2022-07-23T07:30:52;6.10;;;5.60;;
12976;SDS011;6553;48.412;9.514;2022-07-23T07:33:18;6.38;;;5.88;;
12976;SDS011;6553;48.412;9.514;2022-07-23T07:35:44;5.30;;;4.90;;
12976;SDS011;6553;48.412;9.514;2022-07-23T07:38:10;6.18;;;5.68;;
12976;SDS011;6553;48.412;9.514;2022-07-23T07:40:35;6.07;;;5.65;;
12976;SDS011;6553;48.412;9.514;2022-07-23T07:43:01;6.05;;;5.55;;
12976;SDS011;6553;48.412;9.514;2022-07-23T07:45:28;6.15;;;5.68;;
12976;SDS011;6553;48.412;9.514;2022-07-23T07:47:54;6.22;;;5.70;;
12976;SDS011;6553;48.412;9.514;2022-07-23T07:50:21;6.07;;;5.53;;
12976;SDS011;6553;48.412;9.514;2022-07-23T07:52:47;6.35;;;5.78;;
12976;SDS011;6553;48.412;9.514;2022-07-23T07:55:13;6.00;;;5.60;;
12976;SDS011;6553;48.412;9.514;2022-07-23T07:57:39;6.28;;;5.72;;
12976;SDS011;6553;48.412;9.514;2022-07-23T08:00:06;5.53;;;5.13;;
12976;SDS011;6553;48.412;9.514;2022-07-23T08:02:41;5.68;;;5.28;;
12976;SDS011;6553;48.412;9.514;2022-07-23T08:05:21;6.22;;;5.70;;
12976;SDS011;6553;48.412;9.514;2022-07-23T08:07:52;6.07;;;5.57;;
12976;SDS011;6553;48.412;9.514;2022-07-23T08:10:18;5.72;;;5.22;;
12976;SDS011;6553;48.412;9.514;2022-07-23T08:12:45;5.40;;;5.00;;
12976;SDS011;6553;48.412;9.514;2022-07-23T08:15:17;5.50;;;5.10;;
12976;SDS011;6553;48.412;9.514;2022-07-23T08:17:45;6.07;;;5.63;;
12976;SDS011;6553;48.412;9.514;2022-07-23T08:20:13;6.07;;;5.57;;
12976;SDS011;6553;48.412;9.514;2022-07-23T08:25:26;5.78;;;5.35;;
12976;SDS011;6553;48.412;9.514;2022-07-23T08:27:58;5.90;;;5.35;;
12976;SDS011;6553;48.412;9.514;2022-07-23T08:30:27;5.65;;;5.25;;
12976;SDS011;6553;48.412;9.514;2022-07-23T08:32:58;5.55;;;5.10;;
12976;SDS011;6553;48.412;9.514;2022-07-23T08:35:34;5.90;;;5.40;;
12976;SDS011;6553;48.412;9.514;2022-07-23T08:38:08;5.80;;;5.30;;
12976;SDS011;6553;48.412;9.514;2022-07-23T08:40:40;5.53;;;5.13;;
12976;SDS011;6553;48.412;9.514;2022-07-23T08:43:14;5.65;;;5.15;;
12976;SDS011;6553;48.412;9.514;2022-07-23T08:45:45;6.05;;;5.55;;
12976;SDS011;6553;48.412;9.514;2022-07-23T08:48:15;5.78;;;5.28;;
12976;SDS011;6553;48.412;9.514;2022-07-23T08:50:44;5.60;;;5.20;;
12976;SDS011;6553;48.412;9.514;2022-07-23T08:53:16;5.57;;;5.18;;
12976;SDS011;6553;48.412;9.514;2022-07-23T08:55:44;5.82;;;5.35;;
12976;SDS011;6553;48.412;9.514;2022-07-23T08:58:13;5.50;;;5.10;;
12976;SDS011;6553;48.412;9.514;2022-07-23T09:00:39;5.90;;;5.38;;
12976;SDS011;6553;48.412;9.514;2022-07-23T09:03:06;6.03;;;5.53;;
12976;SDS011;6553;48.412;9.514;2022-07-23T09:05:32;5.57;;;5.10;;
12976;SDS011;6553;48.412;9.514;2022-07-23T09:08:11;5.60;;;5.10;;
12976;SDS011;6553;48.412;9.514;2022-07-23T09:16:14;5.65;;;5.15;;
12976;SDS011;6553;48.412;9.514;2022-07-23T09:21:12;5.90;;;5.47;;
12976;SDS011;6553;48.412;9.514;2022-07-23T09:23:45;5.72;;;5.28;;
12976;SDS011;6553;48.412;9.514;2022-07-23T09:26:38;5.85;;;5.35;;
12976;SDS011;6553;48.412;9.514;2022-07-23T09:29:07;5.30;;;4.90;;
12976;SDS011;6553;48.412;9.514;2022-07-23T09:31:47;5.60;;;5.20;;
12976;SDS011;6553;48.412;9.514;2022-07-23T09:34:23;6.18;;;5.68;;
12976;SDS011;6553;48.412;9.514;2022-07-23T09:36:52;5.60;;;5.20;;
12976;SDS011;6553;48.412;9.514;2022-07-23T09:39:31;5.70;;;5.28;;
12976;SDS011;6553;48.412;9.514;2022-07-23T09:44:44;6.03;;;5.50;;
12976;SDS011;6553;48.412;9.514;2022-07-23T09:47:21;5.70;;;5.30;;
12976;SDS011;6553;48.412;9.514;2022-07-23T09:52:32;5.60;;;4.95;;
12976;SDS011;6553;48.412;9.514;2022-07-23T09:55:02;5.90;;;5.30;;
12976;SDS011;6553;48.412;9.514;2022-07-23T09:57:31;5.60;;;5.10;;
12976;SDS011;6553;48.412;9.514;2022-07-23T10:00:00;7.55;;;4.82;;
12976;SDS011;6553;48.412;9.514;2022-07-23T10:02:34;6.13;;;5.53;;
12976;SDS011;6553;48.412;9.514;2022-07-23T10:05:19;5.80;;;5.38;;
12976;SDS011;6553;48.412;9.514;2022-07-23T10:08:08;5.88;;;5.30;;
12976;SDS011;6553;48.412;9.514;2022-07-23T10:10:55;5.40;;;5.00;;
12976;SDS011;6553;48.412;9.514;2022-07-23T10:13:42;6.05;;;5.55;;
12976;SDS011;6553;48.412;9.514;2022-07-23T10:16:30;5.45;;;4.85;;
12976;SDS011;6553;48.412;9.514;2022-07-23T10:18:57;5.82;;;5.32;;
12976;SDS011;6553;48.412;9.514;2022-07-23T10:22:06;5.15;;;4.75;;
12976;SDS011;6553;48.412;9.514;2022-07-23T10:36:15;7.05;;;5.22;;
12976;SDS011;6553;48.412;9.514;2022-07-23T10:42:15;5.90;;;5.40;;
12976;SDS011;6553;48.412;9.514;2022-07-23T10:44:43;5.57;;;5.07;;
12976;SDS011;6553;48.412;9.514;2022-07-23T10:47:27;5.97;;;5.40;;
12976;SDS011;6553;48.412;9.514;2022-07-23T10:50:16;5.88;;;5.38;;
12976;SDS011;6553;48.412;9.514;2022-07-23T10:57:57;5.53;;;5.13;;
12976;SDS011;6553;48.412;9.514;2022-07-23T11:00:33;5.78;;;5.28;;
12976;SDS011;6553;48.412;9.514;2022-07-23T11:03:03;5.55;;;5.05;;
12976;SDS011;6553;48.412;9.514;2022-07-23T11:05:50;5.43;;;5.03;;
12976;SDS011;6553;48.412;9.514;2022-07-23T11:08:16;5.53;;;5.03;;
12976;SDS011;6553;48.412;9.514;2022-07-23T11:10:47;5.20;;;4.80;;
12976;SDS011;6553;48.412;9.514;2022-07-23T11:26:52;7.90;;;5.43;;
12976;SDS011;6553;48.412;9.514;2022-07-23T11:32:03;6.45;;;5.57;;
12976;SDS011;6553;48.412;9.514;2022-07-23T11:34:43;5.00;;;4.65;;
12976;SDS011;6553;48.412;9.514;2022-07-23T11:37:34;6.63;;;5.68;;
12976;SDS011;6553;48.412;9.514;2022-07-23T11:40:04;5.70;;;4.80;;
12976;SDS011;6553;48.412;9.514;2022-07-23T11:42:40;10.18;;;5.70;;
12976;SDS011;6553;48.412;9.514;2022-07-23T11:48:06;5.22;;;4.82;;
12976;SDS011;6553;48.412;9.514;2022-07-23T11:50:46;5.57;;;5.13;;
12976;SDS011;6553;48.412;9.514;2022-07-23T11:53:21;6.07;;;5.57;;
12976;SDS011;6553;48.412;9.514;2022-07-23T11:55:49;6.65;;;5.80;;
12976;SDS011;6553;48.412;9.514;2022-07-23T11:58:15;7.55;;;5.93;;
12976;SDS011;6553;48.412;9.514;2022-07-23T12:00:41;7.55;;;5.38;;
12976;SDS011;6553;48.412;9.514;2022-07-23T12:03:07;6.28;;;5.65;;
12976;SDS011;6553;48.412;9.514;2022-07-23T12:05:34;6.25;;;5.10;;
12976;SDS011;6553;48.412;9.514;2022-07-23T12:08:06;5.75;;;5.25;;
12976;SDS011;6553;48.412;9.514;2022-07-23T12:10:35;6.07;;;5.57;;
12976;SDS011;6553;48.412;9.514;2022-07-23T12:13:14;6.35;;;5.75;;
12976;SDS011;6553;48.412;9.514;2022-07-23T12:15:47;6.68;;;5.72;;
12976;SDS011;6553;48.412;9.514;2022-07-23T12:18:18;9.20;;;5.50;;
12976;SDS011;6553;48.412;9.514;2022-07-23T12:20:47;6.00;;;5.35;;
12976;SDS011;6553;48.412;9.514;2022-07-23T12:23:22;6.18;;;5.57;;
12976;SDS011;6553;48.412;9.514;2022-07-23T12:25:51;6.85;;;5.22;;
12976;SDS011;6553;48.412;9.514;2022-07-23T12:28:28;6.07;;;5.30;;
12976;SDS011;6553;48.412;9.514;2022-07-23T12:30:57;6.20;;;5.60;;
12976;SDS011;6553;48.412;9.514;2022-07-23T12:33:25;5.95;;;5.40;;
12976;SDS011;6553;48.412;9.514;2022-07-23T12:35:55;6.10;;;5.60;;
12976;SDS011;6553;48.412;9.514;2022-07-23T12:38:24;5.63;;;5.13;;
12976;SDS011;6553;48.412;9.514;2022-07-23T12:43:25;6.78;;;5.30;;
12976;SDS011;6553;48.412;9.514;2022-07-23T12:46:03;6.38;;;5.88;;
12976;SDS011;6553;48.412;9.514;2022-07-23T12:56:35;6.53;;;5.93;;
12976;SDS011;6553;48.412;9.514;2022-07-23T13:01:32;5.75;;;5.28;;
12976;SDS011;6553;48.412;9.514;2022-07-23T13:06:44;7.25;;;5.50;;
12976;SDS011;6553;48.412;9.514;2022-07-23T13:09:12;6.20;;;5.60;;
12976;SDS011;6553;48.412;9.514;2022-07-23T13:11:44;6.85;;;5.85;;
12976;SDS011;6553;48.412;9.514;2022-07-23T13:14:11;5.55;;;5.07;;
12976;SDS011;6553;48.412;9.514;2022-07-23T13:16:38;5.68;;;5.18;;
12976;SDS011;6553;48.412;9.514;2022-07-23T13:19:05;5.90;;;5.25;;
12976;SDS011;6553;48.412;9.514;2022-07-23T13:21:32;5.82;;;5.32;;
12976;SDS011;6553;48.412;9.514;2022-07-23T13:23:58;5.78;;;5.35;;
12976;SDS011;6553;48.412;9.514;2022-07-23T13:26:25;6.43;;;5.82;;
12976;SDS011;6553;48.412;9.514;2022-07-23T13:28:52;6.20;;;5.28;;
12976;SDS011;6553;48.412;9.514;2022-07-23T13:31:18;6.68;;;5.82;;
12976;SDS011;6553;48.412;9.514;2022-07-23T13:33:45;6.18;;;5.68;;
12976;SDS011;6553;48.412;9.514;2022-07-23T13:36:11;5.60;;;5.10;;
12976;SDS011;6553;48.412;9.514;2022-07-23T13:38:37;6.45;;;5.88;;
12976;SDS011;6553;48.412;9.514;2022-07-23T13:41:04;6.00;;;5.57;;
12976;SDS011;6553;48.412;9.514;2022-07-23T13:43:31;6.18;;;5.68;;
12976;SDS011;6553;48.412;9.514;2022-07-23T13:45:57;5.95;;;5.43;;
12976;SDS011;6553;48.412;9.514;2022-07-23T13:48:24;5.93;;;5.43;;
12976;SDS011;6553;48.412;9.514;2022-07-23T13:50:50;5.72;;;5.18;;
12976;SDS011;6553;48.412;9.514;2022-07-23T13:53:18;6.43;;;5.93;;
12976;SDS011;6553;48.412;9.514;2022-07-23T13:55:47;5.68;;;5.20;;
12976;SDS011;6553;48.412;9.514;2022-07-23T13:58:15;5.95;;;5.35;;
12976;SDS011;6553;48.412;9.514;2022-07-23T14:00:44;5.43;;;5.03;;
12976;SDS011;6553;48.412;9.514;2022-07-23T14:03:15;6.28;;;5.70;;
12976;SDS011;6553;48.412;9.514;2022-07-23T14:05:42;5.90;;;5.50;;
12976;SDS011;6553;48.412;9.514;2022-07-23T14:08:09;6.03;;;5.45;;
12976;SDS011;6553;48.412;9.514;2022-07-23T14:10:35;5.50;;;5.10;;
12976;SDS011;6553;48.412;9.514;2022-07-23T14:13:01;5.90;;;5.40;;
12976;SDS011;6553;48.412;9.514;2022-07-23T14:15:28;6.45;;;5.90;;
12976;SDS011;6553;48.412;9.514;2022-07-23T14:17:56;5.43;;;4.93;;
12976;SDS011;6553;48.412;9.514;2022-07-23T14:20:22;5.82;;;5.32;;
12976;SDS011;6553;48.412;9.514;2022-07-23T14:22:50;5.85;;;5.35;;
12976;SDS011;6553;48.412;9.514;2022-07-23T14:25:17;6.05;;;5.55;;
12976;SDS011;6553;48.412;9.514;2022-07-23T14:27:43;5.88;;;5.47;;
12976;SDS011;6553;48.412;9.514;2022-07-23T14:30:10;5.60;;;5.20;;
12976;SDS011;6553;48.412;9.514;2022-07-23T14:32:37;5.97;;;5.45;;
12976;SDS011;6553;48.412;9.514;2022-07-23T14:35:04;6.60;;;4.97;;
12976;SDS011;6553;48.412;9.514;2022-07-23T14:37:31;5.70;;;5.30;;
12976;SDS011;6553;48.412;9.514;2022-07-23T14:39:56;6.22;;;5.68;;
12976;SDS011;6553;48.412;9.514;2022-07-23T14:42:22;5.85;;;5.20;;
12976;SDS011;6553;48.412;9.514;2022-07-23T14:44:48;5.88;;;5.35;;
12976;SDS011;6553;48.412;9.514;2022-07-23T14:47:14;5.70;;;5.25;;
12976;SDS011;6553;48.412;9.514;2022-07-23T14:49:40;6.07;;;5.57;;
12976;SDS011;6553;48.412;9.514;2022-07-23T14:52:06;5.38;;;4.93;;
12976;SDS011;6553;48.412;9.514;2022-07-23T14:54:33;5.85;;;5.45;;
12976;SDS011;6553;48.412;9.514;2022-07-23T14:56:59;5.40;;;5.00;;
12976;SDS011;6553;48.412;9.514;2022-07-23T14:59:28;4.80;;;4.50;;
12976;SDS011;6553;48.412;9.514;2022-07-23T15:01:55;5.38;;;4.97;;
12976;SDS011;6553;48.412;9.514;2022-07-23T15:04:22;6.25;;;5.75;;
12976;SDS011;6553;48.412;9.514;2022-07-23T15:06:49;5.80;;;5.30;;
12976;SDS011;6553;48.412;9.514;2022-07-23T15:09:15;5.72;;;5.22;;
12976;SDS011;6553;48.412;9.514;2022-07-23T15:11:41;6.18;;;5.57;;
12976;SDS011;6553;48.412;9.514;2022-07-23T15:14:07;5.53;;;5.13;;
12976;SDS011;6553;48.412;9.514;2022-07-23T15:16:34;5.82;;;5.43;;
12976;SDS011;6553;48.412;9.514;2022-07-23T15:19:00;5.43;;;5.03;;
12976;SDS011;6553;48.412;9.514;2022-07-23T15:21:28;5.70;;;5.20;;
12976;SDS011;6553;48.412;9.514;2022-07-23T15:23:54;5.18;;;4.78;;
12976;SDS011;6553;48.412;9.514;2022-07-23T15:26:24;5.90;;;5.40;;
12976;SDS011;6553;48.412;9.514;2022-07-23T15:28:52;5.50;;;5.05;;
12976;SDS011;6553;48.412;9.514;2022-07-23T15:31:18;5.40;;;5.00;;
12976;SDS011;6553;48.412;9.514;2022-07-23T15:33:43;5.68;;;4.93;;
12976;SDS011;6553;48.412;9.514;2022-07-23T15:36:09;5.60;;;5.20;;
12976;SDS011;6553;48.412;9.514;2022-07-23T15:38:35;5.38;;;4.97;;
12976;SDS011;6553;48.412;9.514;2022-07-23T15:41:01;5.88;;;5.40;;
12976;SDS011;6553;48.412;9.514;2022-07-23T15:43:28;5.60;;;5.20;;
12976;SDS011;6553;48.412;9.514;2022-07-23T15:45:55;5.20;;;4.80;;
12976;SDS011;6553;48.412;9.514;2022-07-23T15:48:21;6.18;;;5.63;;
12976;SDS011;6553;48.412;9.514;2022-07-23T15:50:47;5.70;;;5.30;;
12976;SDS011;6553;48.412;9.514;2022-07-23T15:53:14;6.13;;;5.63;;
12976;SDS011;6553;48.412;9.514;2022-07-23T15:55:40;5.60;;;5.13;;
12976;SDS011;6553;48.412;9.514;2022-07-23T15:58:08;5.53;;;5.03;;
12976;SDS011;6553;48.412;9.514;2022-07-23T16:00:36;6.32;;;5.82;;
12976;SDS011;6553;48.412;9.514;2022-07-23T16:03:01;6.45;;;5.95;;
12976;SDS011;6553;48.412;9.514;2022-07-23T16:05:27;5.97;;;5.47;;
12976;SDS011;6553;48.412;9.514;2022-07-23T16:07:53;6.00;;;5.60;;
12976;SDS011;6553;48.412;9.514;2022-07-23T16:10:19;5.88;;;5.38;;
12976;SDS011;6553;48.412;9.514;2022-07-23T16:12:46;5.32;;;4.93;;
12976;SDS011;6553;48.412;9.514;2022-07-23T16:15:12;5.72;;;5.22;;
12976;SDS011;6553;48.412;9.514;2022-07-23T16:17:38;5.82;;;5.43;;
12976;SDS011;6553;48.412;9.514;2022-07-23T16:20:04;5.97;;;5.38;;
12976;SDS011;6553;48.412;9.514;2022-07-23T16:22:32;6.05;;;5.50;;